sensor_id;sensor_type;location;lat;lon;timestamp;temperature;humidity
67354;SHT30;54238;52.278;21.056;2023-03-14T00:01:43;11.69;58.43
67354;SHT30;54238;52.278;21.056;2023-03-14T00:04:12;11.67;58.53
67354;SHT30;54238;52.278;21.056;2023-03-14T00:06:41;11.63;58.65
67354;SHT30;54238;52.278;21.056;2023-03-14T00:09:09;11.60;58.57
67354;SHT30;54238;52.278;21.056;2023-03-14T00:11:38;11.57;58.73
67354;SHT30;54238;52.278;21.056;2023-03-14T00:14:06;11.56;58.89
67354;SHT30;54238;52.278;21.056;2023-03-14T00:16:33;11.51;58.93
67354;SHT30;54238;52.278;21.056;2023-03-14T00:19:01;11.48;59.10
67354;SHT30;54238;52.278;21.056;2023-03-14T00:21:28;11.44;59.14
67354;SHT30;54238;52.278;21.056;2023-03-14T00:24:01;11.41;59.19
67354;SHT30;54238;52.278;21.056;2023-03-14T00:26:33;11.39;59.25
67354;SHT30;54238;52.278;21.056;2023-03-14T00:29:00;11.35;59.39
67354;SHT30;54238;52.278;21.056;2023-03-14T00:31:27;11.31;59.58
67354;SHT30;54238;52.278;21.056;2023-03-14T00:33:57;11.27;59.63
67354;SHT30;54238;52.278;21.056;2023-03-14T00:36:27;11.24;59.73
67354;SHT30;54238;52.278;21.056;2023-03-14T00:38:57;11.19;59.89
67354;SHT30;54238;52.278;21.056;2023-03-14T00:41:26;11.14;59.87
67354;SHT30;54238;52.278;21.056;2023-03-14T00:43:56;11.11;60.00
67354;SHT30;54238;52.278;21.056;2023-03-14T00:46:26;11.07;60.10
67354;SHT30;54238;52.278;21.056;2023-03-14T00:48:53;11.03;60.12
67354;SHT30;54238;52.278;21.056;2023-03-14T00:51:22;10.99;60.22
67354;SHT30;54238;52.278;21.056;2023-03-14T00:53:49;10.94;60.28
67354;SHT30;54238;52.278;21.056;2023-03-14T00:56:17;10.91;60.42
67354;SHT30;54238;52.278;21.056;2023-03-14T00:58:47;10.86;60.54
67354;SHT30;54238;52.278;21.056;2023-03-14T01:01:15;10.81;60.60
67354;SHT30;54238;52.278;21.056;2023-03-14T01:03:45;10.76;60.68
67354;SHT30;54238;52.278;21.056;2023-03-14T01:06:21;10.72;60.72
67354;SHT30;54238;52.278;21.056;2023-03-14T01:08:52;10.69;60.70
67354;SHT30;54238;52.278;21.056;2023-03-14T01:11:24;10.65;60.78
67354;SHT30;54238;52.278;21.056;2023-03-14T01:13:57;10.61;60.80
67354;SHT30;54238;52.278;21.056;2023-03-14T01:16:30;10.59;60.81
67354;SHT30;54238;52.278;21.056;2023-03-14T01:19:01;10.56;60.87
67354;SHT30;54238;52.278;21.056;2023-03-14T01:21:30;10.55;60.81
67354;SHT30;54238;52.278;21.056;2023-03-14T01:24:02;10.53;60.75
67354;SHT30;54238;52.278;21.056;2023-03-14T01:26:34;10.53;60.65
67354;SHT30;54238;52.278;21.056;2023-03-14T01:29:06;10.54;60.62
67354;SHT30;54238;52.278;21.056;2023-03-14T01:31:33;10.54;60.58
67354;SHT30;54238;52.278;21.056;2023-03-14T01:34:03;10.56;60.35
67354;SHT30;54238;52.278;21.056;2023-03-14T01:36:30;10.57;60.21
67354;SHT30;54238;52.278;21.056;2023-03-14T01:38:57;10.57;60.09
67354;SHT30;54238;52.278;21.056;2023-03-14T01:41:27;10.58;60.00
67354;SHT30;54238;52.278;21.056;2023-03-14T01:43:56;10.58;60.00
67354;SHT30;54238;52.278;21.056;2023-03-14T01:49:07;10.59;59.89
67354;SHT30;54238;52.278;21.056;2023-03-14T01:57:35;10.56;59.60
67354;SHT30;54238;52.278;21.056;2023-03-14T02:00:12;10.55;59.50
67354;SHT30;54238;52.278;21.056;2023-03-14T02:02:47;10.53;59.44
67354;SHT30;54238;52.278;21.056;2023-03-14T02:05:43;10.52;59.49
67354;SHT30;54238;52.278;21.056;2023-03-14T02:08:14;10.51;59.52
67354;SHT30;54238;52.278;21.056;2023-03-14T02:10:47;10.49;59.37
67354;SHT30;54238;52.278;21.056;2023-03-14T02:13:16;10.47;59.23
67354;SHT30;54238;52.278;21.056;2023-03-14T02:15:48;10.45;59.35
67354;SHT30;54238;52.278;21.056;2023-03-14T02:18:20;10.43;59.50
67354;SHT30;54238;52.278;21.056;2023-03-14T02:23:23;10.42;59.41
67354;SHT30;54238;52.278;21.056;2023-03-14T02:26:08;10.40;59.45
67354;SHT30;54238;52.278;21.056;2023-03-14T02:28:41;10.35;59.38
67354;SHT30;54238;52.278;21.056;2023-03-14T02:31:09;10.31;59.36
67354;SHT30;54238;52.278;21.056;2023-03-14T02:33:39;10.28;59.43
67354;SHT30;54238;52.278;21.056;2023-03-14T02:36:07;10.26;59.44
67354;SHT30;54238;52.278;21.056;2023-03-14T02:41:17;10.20;59.39
67354;SHT30;54238;52.278;21.056;2023-03-14T02:43:44;10.19;59.23
67354;SHT30;54238;52.278;21.056;2023-03-14T02:46:14;10.18;59.25
67354;SHT30;54238;52.278;21.056;2023-03-14T02:48:53;10.18;59.31
67354;SHT30;54238;52.278;21.056;2023-03-14T02:51:26;10.17;59.21
67354;SHT30;54238;52.278;21.056;2023-03-14T02:53:54;10.16;59.14
67354;SHT30;54238;52.278;21.056;2023-03-14T02:56:24;10.15;59.24
67354;SHT30;54238;52.278;21.056;2023-03-14T02:58:53;10.14;59.20
67354;SHT30;54238;52.278;21.056;2023-03-14T03:01:23;10.14;58.94
67354;SHT30;54238;52.278;21.056;2023-03-14T03:03:53;10.14;58.91
67354;SHT30;54238;52.278;21.056;2023-03-14T03:06:20;10.13;58.70
67354;SHT30;54238;52.278;21.056;2023-03-14T03:08:51;10.15;58.64
67354;SHT30;54238;52.278;21.056;2023-03-14T03:11:21;10.13;58.55
67354;SHT30;54238;52.278;21.056;2023-03-14T03:13:51;10.12;58.66
67354;SHT30;54238;52.278;21.056;2023-03-14T03:16:18;10.08;58.64
67354;SHT30;54238;52.278;21.056;2023-03-14T03:18:48;10.03;58.79
67354;SHT30;54238;52.278;21.056;2023-03-14T03:21:15;9.98;58.80
67354;SHT30;54238;52.278;21.056;2023-03-14T03:23:47;9.94;58.98
67354;SHT30;54238;52.278;21.056;2023-03-14T03:26:16;9.90;59.18
67354;SHT30;54238;52.278;21.056;2023-03-14T03:28:46;9.86;59.24
67354;SHT30;54238;52.278;21.056;2023-03-14T03:31:13;9.81;59.32
67354;SHT30;54238;52.278;21.056;2023-03-14T03:33:40;9.74;59.49
67354;SHT30;54238;52.278;21.056;2023-03-14T03:36:09;9.67;59.64
67354;SHT30;54238;52.278;21.056;2023-03-14T03:38:37;9.60;59.83
67354;SHT30;54238;52.278;21.056;2023-03-14T03:41:08;9.53;59.98
67354;SHT30;54238;52.278;21.056;2023-03-14T03:43:35;9.47;60.16
67354;SHT30;54238;52.278;21.056;2023-03-14T03:46:06;9.40;60.33
67354;SHT30;54238;52.278;21.056;2023-03-14T03:48:33;9.34;60.48
67354;SHT30;54238;52.278;21.056;2023-03-14T03:51:01;9.28;60.68
67354;SHT30;54238;52.278;21.056;2023-03-14T03:53:29;9.23;60.77
67354;SHT30;54238;52.278;21.056;2023-03-14T03:56:00;9.19;60.92
67354;SHT30;54238;52.278;21.056;2023-03-14T03:58:28;9.15;61.02
67354;SHT30;54238;52.278;21.056;2023-03-14T04:00:55;9.12;61.09
67354;SHT30;54238;52.278;21.056;2023-03-14T04:03:26;9.07;61.24
67354;SHT30;54238;52.278;21.056;2023-03-14T04:06:03;9.02;61.39
67354;SHT30;54238;52.278;21.056;2023-03-14T04:08:37;8.97;61.32
67354;SHT30;54238;52.278;21.056;2023-03-14T04:11:13;8.96;61.42
67354;SHT30;54238;52.278;21.056;2023-03-14T04:13:42;8.92;61.52
67354;SHT30;54238;52.278;21.056;2023-03-14T04:16:13;8.90;61.56
67354;SHT30;54238;52.278;21.056;2023-03-14T04:18:53;8.87;61.60
67354;SHT30;54238;52.278;21.056;2023-03-14T04:21:22;8.85;61.64
67354;SHT30;54238;52.278;21.056;2023-03-14T04:23:50;8.83;61.68
67354;SHT30;54238;52.278;21.056;2023-03-14T04:26:19;8.81;61.69
67354;SHT30;54238;52.278;21.056;2023-03-14T04:28:51;8.77;61.70
67354;SHT30;54238;52.278;21.056;2023-03-14T04:31:19;8.75;61.73
67354;SHT30;54238;52.278;21.056;2023-03-14T04:33:54;8.73;61.80
67354;SHT30;54238;52.278;21.056;2023-03-14T04:36:21;8.71;61.81
67354;SHT30;54238;52.278;21.056;2023-03-14T04:38:51;8.69;61.89
67354;SHT30;54238;52.278;21.056;2023-03-14T04:41:21;8.69;61.87
67354;SHT30;54238;52.278;21.056;2023-03-14T04:43:55;8.70;61.88
67354;SHT30;54238;52.278;21.056;2023-03-14T04:46:25;8.70;61.87
67354;SHT30;54238;52.278;21.056;2023-03-14T04:48:52;8.70;61.80
67354;SHT30;54238;52.278;21.056;2023-03-14T04:51:24;8.73;61.85
67354;SHT30;54238;52.278;21.056;2023-03-14T04:53:56;8.72;61.82
67354;SHT30;54238;52.278;21.056;2023-03-14T04:56:23;8.74;61.70
67354;SHT30;54238;52.278;21.056;2023-03-14T04:58:52;8.77;61.65
67354;SHT30;54238;52.278;21.056;2023-03-14T05:01:24;8.81;61.54
67354;SHT30;54238;52.278;21.056;2023-03-14T05:03:54;8.81;61.40
67354;SHT30;54238;52.278;21.056;2023-03-14T05:06:21;8.84;61.31
67354;SHT30;54238;52.278;21.056;2023-03-14T05:08:49;8.86;61.23
67354;SHT30;54238;52.278;21.056;2023-03-14T05:11:16;8.88;61.15
67354;SHT30;54238;52.278;21.056;2023-03-14T05:13:46;8.90;61.04
67354;SHT30;54238;52.278;21.056;2023-03-14T05:16:20;8.93;61.02
67354;SHT30;54238;52.278;21.056;2023-03-14T05:18:52;8.96;60.82
67354;SHT30;54238;52.278;21.056;2023-03-14T05:21:19;9.00;60.78
67354;SHT30;54238;52.278;21.056;2023-03-14T05:23:48;9.03;60.59
67354;SHT30;54238;52.278;21.056;2023-03-14T05:26:20;9.05;60.43
67354;SHT30;54238;52.278;21.056;2023-03-14T05:28:51;9.07;60.42
67354;SHT30;54238;52.278;21.056;2023-03-14T05:31:19;9.07;60.40
67354;SHT30;54238;52.278;21.056;2023-03-14T05:33:48;9.09;60.38
67354;SHT30;54238;52.278;21.056;2023-03-14T05:36:15;9.07;60.34
67354;SHT30;54238;52.278;21.056;2023-03-14T05:38:47;9.07;60.38
67354;SHT30;54238;52.278;21.056;2023-03-14T05:41:17;9.06;60.24
67354;SHT30;54238;52.278;21.056;2023-03-14T05:43:46;9.07;60.26
67354;SHT30;54238;52.278;21.056;2023-03-14T05:46:16;9.08;60.10
67354;SHT30;54238;52.278;21.056;2023-03-14T05:48:46;9.09;60.00
67354;SHT30;54238;52.278;21.056;2023-03-14T05:51:15;9.09;59.92
67354;SHT30;54238;52.278;21.056;2023-03-14T05:53:47;9.12;59.88
67354;SHT30;54238;52.278;21.056;2023-03-14T05:56:16;9.16;59.79
67354;SHT30;54238;52.278;21.056;2023-03-14T05:58:46;9.22;59.70
67354;SHT30;54238;52.278;21.056;2023-03-14T06:01:13;9.31;59.41
67354;SHT30;54238;52.278;21.056;2023-03-14T06:03:45;9.39;59.22
67354;SHT30;54238;52.278;21.056;2023-03-14T06:06:14;9.47;58.93
67354;SHT30;54238;52.278;21.056;2023-03-14T06:08:43;9.57;58.71
67354;SHT30;54238;52.278;21.056;2023-03-14T06:11:14;9.64;58.49
67354;SHT30;54238;52.278;21.056;2023-03-14T06:13:46;9.70;58.31
67354;SHT30;54238;52.278;21.056;2023-03-14T06:16:18;9.79;58.09
67354;SHT30;54238;52.278;21.056;2023-03-14T06:18:45;9.85;57.87
67354;SHT30;54238;52.278;21.056;2023-03-14T06:21:15;9.90;57.61
67354;SHT30;54238;52.278;21.056;2023-03-14T06:23:45;9.95;57.58
67354;SHT30;54238;52.278;21.056;2023-03-14T06:26:14;10.00;57.02
67354;SHT30;54238;52.278;21.056;2023-03-14T06:28:41;10.02;56.93
67354;SHT30;54238;52.278;21.056;2023-03-14T06:31:11;10.03;57.08
67354;SHT30;54238;52.278;21.056;2023-03-14T06:33:40;10.06;57.15
67354;SHT30;54238;52.278;21.056;2023-03-14T06:36:07;10.09;57.22
67354;SHT30;54238;52.278;21.056;2023-03-14T06:38:37;10.12;57.15
67354;SHT30;54238;52.278;21.056;2023-03-14T06:41:11;10.15;57.13
67354;SHT30;54238;52.278;21.056;2023-03-14T06:43:43;10.19;56.91
67354;SHT30;54238;52.278;21.056;2023-03-14T06:46:10;10.23;56.74
67354;SHT30;54238;52.278;21.056;2023-03-14T06:48:37;10.29;56.86
67354;SHT30;54238;52.278;21.056;2023-03-14T06:51:07;10.35;56.59
67354;SHT30;54238;52.278;21.056;2023-03-14T06:53:34;10.44;56.56
67354;SHT30;54238;52.278;21.056;2023-03-14T06:56:01;10.51;56.32
67354;SHT30;54238;52.278;21.056;2023-03-14T06:58:31;10.62;56.34
67354;SHT30;54238;52.278;21.056;2023-03-14T07:00:58;10.75;56.07
67354;SHT30;54238;52.278;21.056;2023-03-14T07:03:25;10.86;55.71
67354;SHT30;54238;52.278;21.056;2023-03-14T07:05:52;10.98;55.75
67354;SHT30;54238;52.278;21.056;2023-03-14T07:08:19;11.09;55.52
67354;SHT30;54238;52.278;21.056;2023-03-14T07:10:49;11.22;55.35
67354;SHT30;54238;52.278;21.056;2023-03-14T07:13:21;11.35;55.02
67354;SHT30;54238;52.278;21.056;2023-03-14T07:15:50;11.45;54.74
67354;SHT30;54238;52.278;21.056;2023-03-14T07:18:17;11.55;54.41
67354;SHT30;54238;52.278;21.056;2023-03-14T07:20:49;11.66;54.37
67354;SHT30;54238;52.278;21.056;2023-03-14T07:23:16;11.74;54.05
67354;SHT30;54238;52.278;21.056;2023-03-14T07:25:45;11.82;53.69
67354;SHT30;54238;52.278;21.056;2023-03-14T07:28:12;11.90;53.97
67354;SHT30;54238;52.278;21.056;2023-03-14T07:30:39;11.97;53.22
67354;SHT30;54238;52.278;21.056;2023-03-14T07:33:08;12.05;52.89
67354;SHT30;54238;52.278;21.056;2023-03-14T07:35:37;12.18;53.16
67354;SHT30;54238;52.278;21.056;2023-03-14T07:38:04;12.33;52.77
67354;SHT30;54238;52.278;21.056;2023-03-14T07:40:34;12.50;52.56
67354;SHT30;54238;52.278;21.056;2023-03-14T07:43:06;12.71;52.26
67354;SHT30;54238;52.278;21.056;2023-03-14T07:45:33;12.92;52.37
67354;SHT30;54238;52.278;21.056;2023-03-14T07:48:00;13.13;51.16
67354;SHT30;54238;52.278;21.056;2023-03-14T07:50:28;13.27;50.83
67354;SHT30;54238;52.278;21.056;2023-03-14T07:52:58;13.41;50.62
67354;SHT30;54238;52.278;21.056;2023-03-14T07:55:29;13.56;49.67
67354;SHT30;54238;52.278;21.056;2023-03-14T07:57:59;13.69;49.48
67354;SHT30;54238;52.278;21.056;2023-03-14T08:00:29;13.81;48.67
67354;SHT30;54238;52.278;21.056;2023-03-14T08:02:56;13.94;48.34
67354;SHT30;54238;52.278;21.056;2023-03-14T08:05:26;14.06;47.52
67354;SHT30;54238;52.278;21.056;2023-03-14T08:07:53;14.18;47.32
67354;SHT30;54238;52.278;21.056;2023-03-14T08:10:21;14.31;47.11
67354;SHT30;54238;52.278;21.056;2023-03-14T08:12:58;14.47;47.25
67354;SHT30;54238;52.278;21.056;2023-03-14T08:15:30;14.65;46.69
67354;SHT30;54238;52.278;21.056;2023-03-14T08:18:05;14.76;45.91
67354;SHT30;54238;52.278;21.056;2023-03-14T08:20:35;14.82;45.73
67354;SHT30;54238;52.278;21.056;2023-03-14T08:23:07;14.84;45.92
67354;SHT30;54238;52.278;21.056;2023-03-14T08:25:34;14.91;46.11
67354;SHT30;54238;52.278;21.056;2023-03-14T08:28:04;14.99;46.28
67354;SHT30;54238;52.278;21.056;2023-03-14T08:30:36;15.05;45.61
67354;SHT30;54238;52.278;21.056;2023-03-14T08:33:05;15.11;45.66
67354;SHT30;54238;52.278;21.056;2023-03-14T08:35:37;15.17;45.78
67354;SHT30;54238;52.278;21.056;2023-03-14T08:38:07;15.33;45.67
67354;SHT30;54238;52.278;21.056;2023-03-14T08:40:34;15.50;45.59
67354;SHT30;54238;52.278;21.056;2023-03-14T08:43:06;15.62;44.70
67354;SHT30;54238;52.278;21.056;2023-03-14T08:45:37;15.61;44.43
67354;SHT30;54238;52.278;21.056;2023-03-14T08:48:08;15.60;44.33
67354;SHT30;54238;52.278;21.056;2023-03-14T08:50:35;15.56;44.26
67354;SHT30;54238;52.278;21.056;2023-03-14T08:53:06;15.55;44.62
67354;SHT30;54238;52.278;21.056;2023-03-14T08:55:36;15.66;44.48
67354;SHT30;54238;52.278;21.056;2023-03-14T08:58:03;15.82;44.29
67354;SHT30;54238;52.278;21.056;2023-03-14T09:00:33;16.08;43.73
67354;SHT30;54238;52.278;21.056;2023-03-14T09:03:02;16.31;43.27
67354;SHT30;54238;52.278;21.056;2023-03-14T09:05:32;16.49;42.78
67354;SHT30;54238;52.278;21.056;2023-03-14T09:08:00;16.62;42.52
67354;SHT30;54238;52.278;21.056;2023-03-14T09:10:33;16.83;42.38
67354;SHT30;54238;52.278;21.056;2023-03-14T09:13:00;16.94;41.99
67354;SHT30;54238;52.278;21.056;2023-03-14T09:15:27;17.08;41.94
67354;SHT30;54238;52.278;21.056;2023-03-14T09:17:59;17.43;41.47
67354;SHT30;54238;52.278;21.056;2023-03-14T09:20:26;17.80;41.21
67354;SHT30;54238;52.278;21.056;2023-03-14T09:22:53;18.14;40.65
67354;SHT30;54238;52.278;21.056;2023-03-14T09:25:23;18.38;39.31
67354;SHT30;54238;52.278;21.056;2023-03-14T09:27:57;18.34;39.16
67354;SHT30;54238;52.278;21.056;2023-03-14T09:30:29;18.18;39.35
67354;SHT30;54238;52.278;21.056;2023-03-14T09:32:58;18.23;39.61
67354;SHT30;54238;52.278;21.056;2023-03-14T09:35:30;18.31;38.87
67354;SHT30;54238;52.278;21.056;2023-03-14T09:38:01;18.25;39.60
67354;SHT30;54238;52.278;21.056;2023-03-14T09:40:32;18.22;38.79
67354;SHT30;54238;52.278;21.056;2023-03-14T09:43:02;18.23;38.97
67354;SHT30;54238;52.278;21.056;2023-03-14T09:45:34;18.24;38.59
67354;SHT30;54238;52.278;21.056;2023-03-14T09:48:15;18.32;38.62
67354;SHT30;54238;52.278;21.056;2023-03-14T09:50:50;18.46;38.64
67354;SHT30;54238;52.278;21.056;2023-03-14T09:53:24;18.68;38.60
67354;SHT30;54238;52.278;21.056;2023-03-14T09:56:25;19.02;37.16
67354;SHT30;54238;52.278;21.056;2023-03-14T09:59:00;19.10;36.96
67354;SHT30;54238;52.278;21.056;2023-03-14T10:01:34;19.07;36.40
67354;SHT30;54238;52.278;21.056;2023-03-14T10:04:06;19.12;36.52
67354;SHT30;54238;52.278;21.056;2023-03-14T10:06:50;19.40;36.50
67354;SHT30;54238;52.278;21.056;2023-03-14T10:09:18;19.71;35.84
67354;SHT30;54238;52.278;21.056;2023-03-14T10:11:58;20.12;35.46
67354;SHT30;54238;52.278;21.056;2023-03-14T10:14:33;20.29;35.18
67354;SHT30;54238;52.278;21.056;2023-03-14T10:17:11;20.26;34.69
67354;SHT30;54238;52.278;21.056;2023-03-14T10:19:56;20.16;35.86
67354;SHT30;54238;52.278;21.056;2023-03-14T10:22:28;19.98;35.82
67354;SHT30;54238;52.278;21.056;2023-03-14T10:25:02;19.73;36.10
67354;SHT30;54238;52.278;21.056;2023-03-14T10:27:50;19.50;36.55
67354;SHT30;54238;52.278;21.056;2023-03-14T10:30:59;19.32;37.09
67354;SHT30;54238;52.278;21.056;2023-03-14T10:38:23;18.84;37.59
67354;SHT30;54238;52.278;21.056;2023-03-14T10:40:59;18.69;37.76
67354;SHT30;54238;52.278;21.056;2023-03-14T10:43:33;18.57;38.17
67354;SHT30;54238;52.278;21.056;2023-03-14T10:48:36;19.36;38.44
67354;SHT30;54238;52.278;21.056;2023-03-14T10:53:46;19.94;37.06
67354;SHT30;54238;52.278;21.056;2023-03-14T10:56:21;19.98;36.91
67354;SHT30;54238;52.278;21.056;2023-03-14T10:58:54;20.09;35.63
67354;SHT30;54238;52.278;21.056;2023-03-14T11:21:13;19.14;37.36
67354;SHT30;54238;52.278;21.056;2023-03-14T11:24:05;18.81;37.75
67354;SHT30;54238;52.278;21.056;2023-03-14T11:32:00;18.35;38.90
67354;SHT30;54238;52.278;21.056;2023-03-14T11:34:40;18.10;39.36
67354;SHT30;54238;52.278;21.056;2023-03-14T11:37:29;17.89;39.60
67354;SHT30;54238;52.278;21.056;2023-03-14T11:40:10;17.71;40.05
67354;SHT30;54238;52.278;21.056;2023-03-14T11:42:44;17.61;40.45
67354;SHT30;54238;52.278;21.056;2023-03-14T11:45:28;17.50;40.67
67354;SHT30;54238;52.278;21.056;2023-03-14T11:51:24;17.27;41.12
67354;SHT30;54238;52.278;21.056;2023-03-14T11:56:55;17.16;41.88
67354;SHT30;54238;52.278;21.056;2023-03-14T12:06:01;17.16;42.01
67354;SHT30;54238;52.278;21.056;2023-03-14T12:14:16;17.55;41.41
67354;SHT30;54238;52.278;21.056;2023-03-14T12:16:59;17.75;41.18
67354;SHT30;54238;52.278;21.056;2023-03-14T12:19:42;17.92;40.68
67354;SHT30;54238;52.278;21.056;2023-03-14T12:25:00;17.91;40.99
67354;SHT30;54238;52.278;21.056;2023-03-14T12:30:42;17.56;41.89
67354;SHT30;54238;52.278;21.056;2023-03-14T12:33:19;17.44;42.46
67354;SHT30;54238;52.278;21.056;2023-03-14T12:36:03;17.31;42.58
67354;SHT30;54238;52.278;21.056;2023-03-14T12:41:48;16.95;43.22
67354;SHT30;54238;52.278;21.056;2023-03-14T12:49:46;16.56;44.15
67354;SHT30;54238;52.278;21.056;2023-03-14T12:52:20;16.48;44.46
67354;SHT30;54238;52.278;21.056;2023-03-14T12:55:12;16.38;44.81
67354;SHT30;54238;52.278;21.056;2023-03-14T13:01:02;16.22;46.01
67354;SHT30;54238;52.278;21.056;2023-03-14T13:12:39;15.44;51.14
67354;SHT30;54238;52.278;21.056;2023-03-14T13:15:38;15.23;52.51
67354;SHT30;54238;52.278;21.056;2023-03-14T13:18:15;15.05;53.45
67354;SHT30;54238;52.278;21.056;2023-03-14T13:20:54;14.87;54.20
67354;SHT30;54238;52.278;21.056;2023-03-14T13:23:29;14.73;54.84
67354;SHT30;54238;52.278;21.056;2023-03-14T13:26:05;14.64;54.98
67354;SHT30;54238;52.278;21.056;2023-03-14T13:28:43;14.58;55.45
67354;SHT30;54238;52.278;21.056;2023-03-14T13:31:16;14.52;56.03
67354;SHT30;54238;52.278;21.056;2023-03-14T13:33:58;14.47;56.28
67354;SHT30;54238;52.278;21.056;2023-03-14T13:36:28;14.43;56.54
67354;SHT30;54238;52.278;21.056;2023-03-14T13:38:56;14.35;57.06
67354;SHT30;54238;52.278;21.056;2023-03-14T13:41:28;14.31;57.00
67354;SHT30;54238;52.278;21.056;2023-03-14T13:44:03;14.26;57.22
67354;SHT30;54238;52.278;21.056;2023-03-14T13:46:42;14.17;57.74
67354;SHT30;54238;52.278;21.056;2023-03-14T13:49:13;14.11;58.34
67354;SHT30;54238;52.278;21.056;2023-03-14T13:51:52;14.05;58.96
67354;SHT30;54238;52.278;21.056;2023-03-14T13:54:22;13.95;59.47
67354;SHT30;54238;52.278;21.056;2023-03-14T13:57:00;13.88;59.90
67354;SHT30;54238;52.278;21.056;2023-03-14T13:59:31;13.80;60.49
67354;SHT30;54238;52.278;21.056;2023-03-14T14:02:12;13.72;60.95
67354;SHT30;54238;52.278;21.056;2023-03-14T14:04:42;13.63;61.28
67354;SHT30;54238;52.278;21.056;2023-03-14T14:07:15;13.56;61.43
67354;SHT30;54238;52.278;21.056;2023-03-14T14:09:48;13.52;61.64
67354;SHT30;54238;52.278;21.056;2023-03-14T14:12:26;13.50;61.88
67354;SHT30;54238;52.278;21.056;2023-03-14T14:15:10;13.48;62.11
67354;SHT30;54238;52.278;21.056;2023-03-14T14:17:44;13.49;62.25
67354;SHT30;54238;52.278;21.056;2023-03-14T14:23:00;13.44;62.61
67354;SHT30;54238;52.278;21.056;2023-03-14T14:25:33;13.41;62.53
67354;SHT30;54238;52.278;21.056;2023-03-14T14:33:56;13.43;63.08
67354;SHT30;54238;52.278;21.056;2023-03-14T14:36:38;13.48;63.06
67354;SHT30;54238;52.278;21.056;2023-03-14T14:39:18;13.51;63.15
67354;SHT30;54238;52.278;21.056;2023-03-14T14:41:52;13.52;63.16
67354;SHT30;54238;52.278;21.056;2023-03-14T14:44:34;13.51;63.31
67354;SHT30;54238;52.278;21.056;2023-03-14T14:47:11;13.49;63.44
67354;SHT30;54238;52.278;21.056;2023-03-14T14:49:42;13.47;63.52
67354;SHT30;54238;52.278;21.056;2023-03-14T14:52:18;13.44;63.56
67354;SHT30;54238;52.278;21.056;2023-03-14T14:54:58;13.40;63.80
67354;SHT30;54238;52.278;21.056;2023-03-14T14:57:33;13.37;64.14
67354;SHT30;54238;52.278;21.056;2023-03-14T15:00:18;13.35;64.14
67354;SHT30;54238;52.278;21.056;2023-03-14T15:02:52;13.34;64.41
67354;SHT30;54238;52.278;21.056;2023-03-14T15:05:27;13.32;64.49
67354;SHT30;54238;52.278;21.056;2023-03-14T15:08:02;13.31;64.45
67354;SHT30;54238;52.278;21.056;2023-03-14T15:10:37;13.29;64.55
67354;SHT30;54238;52.278;21.056;2023-03-14T15:13:07;13.27;64.70
67354;SHT30;54238;52.278;21.056;2023-03-14T15:15:36;13.27;64.72
67354;SHT30;54238;52.278;21.056;2023-03-14T15:18:39;13.28;64.74
67354;SHT30;54238;52.278;21.056;2023-03-14T15:20:59;13.28;64.58
67354;SHT30;54238;52.278;21.056;2023-03-14T15:23:29;13.24;64.86
67354;SHT30;54238;52.278;21.056;2023-03-14T15:25:58;13.19;65.08
67354;SHT30;54238;52.278;21.056;2023-03-14T15:28:27;13.13;65.28
67354;SHT30;54238;52.278;21.056;2023-03-14T15:31:00;13.04;65.48
67354;SHT30;54238;52.278;21.056;2023-03-14T15:33:27;12.97;65.70
67354;SHT30;54238;52.278;21.056;2023-03-14T15:35:55;12.91;65.94
67354;SHT30;54238;52.278;21.056;2023-03-14T15:38:26;12.87;66.00
67354;SHT30;54238;52.278;21.056;2023-03-14T15:40:55;12.85;66.06
67354;SHT30;54238;52.278;21.056;2023-03-14T15:43:22;12.84;66.17
67354;SHT30;54238;52.278;21.056;2023-03-14T15:45:52;12.82;66.24
67354;SHT30;54238;52.278;21.056;2023-03-14T15:48:26;12.78;66.34
67354;SHT30;54238;52.278;21.056;2023-03-14T15:50:56;12.74;66.52
67354;SHT30;54238;52.278;21.056;2023-03-14T15:53:25;12.69;66.76
67354;SHT30;54238;52.278;21.056;2023-03-14T15:55:53;12.65;66.90
67354;SHT30;54238;52.278;21.056;2023-03-14T15:58:25;12.62;66.82
67354;SHT30;54238;52.278;21.056;2023-03-14T16:00:52;12.62;66.79
67354;SHT30;54238;52.278;21.056;2023-03-14T16:03:19;12.63;66.97
67354;SHT30;54238;52.278;21.056;2023-03-14T16:05:48;12.61;66.94
67354;SHT30;54238;52.278;21.056;2023-03-14T16:08:20;12.61;67.11
67354;SHT30;54238;52.278;21.056;2023-03-14T16:10:55;12.60;67.17
67354;SHT30;54238;52.278;21.056;2023-03-14T16:13:28;12.58;67.16
67354;SHT30;54238;52.278;21.056;2023-03-14T16:16:05;12.55;67.28
67354;SHT30;54238;52.278;21.056;2023-03-14T16:18:36;12.53;67.32
67354;SHT30;54238;52.278;21.056;2023-03-14T16:21:14;12.52;67.29
67354;SHT30;54238;52.278;21.056;2023-03-14T16:23:48;12.51;67.48
67354;SHT30;54238;52.278;21.056;2023-03-14T16:26:17;12.48;67.67
67354;SHT30;54238;52.278;21.056;2023-03-14T16:28:46;12.45;67.66
67354;SHT30;54238;52.278;21.056;2023-03-14T16:31:21;12.45;67.68
67354;SHT30;54238;52.278;21.056;2023-03-14T16:33:50;12.44;67.67
67354;SHT30;54238;52.278;21.056;2023-03-14T16:36:17;12.44;67.76
67354;SHT30;54238;52.278;21.056;2023-03-14T16:38:49;12.44;67.71
67354;SHT30;54238;52.278;21.056;2023-03-14T16:41:18;12.44;67.78
67354;SHT30;54238;52.278;21.056;2023-03-14T16:43:46;12.43;67.71
67354;SHT30;54238;52.278;21.056;2023-03-14T16:46:18;12.43;67.84
67354;SHT30;54238;52.278;21.056;2023-03-14T16:48:53;12.42;67.91
67354;SHT30;54238;52.278;21.056;2023-03-14T16:51:25;12.40;67.93
67354;SHT30;54238;52.278;21.056;2023-03-14T16:53:52;12.38;68.01
67354;SHT30;54238;52.278;21.056;2023-03-14T16:56:22;12.38;68.03
67354;SHT30;54238;52.278;21.056;2023-03-14T16:58:53;12.36;68.08
67354;SHT30;54238;52.278;21.056;2023-03-14T17:01:21;12.35;68.18
67354;SHT30;54238;52.278;21.056;2023-03-14T17:03:48;12.33;68.14
67354;SHT30;54238;52.278;21.056;2023-03-14T17:06:26;12.33;68.09
67354;SHT30;54238;52.278;21.056;2023-03-14T17:08:59;12.33;68.12
67354;SHT30;54238;52.278;21.056;2023-03-14T17:11:31;12.34;68.09
67354;SHT30;54238;52.278;21.056;2023-03-14T17:14:00;12.34;68.02
67354;SHT30;54238;52.278;21.056;2023-03-14T17:16:30;12.33;68.05
67354;SHT30;54238;52.278;21.056;2023-03-14T17:18:59;12.33;67.99
67354;SHT30;54238;52.278;21.056;2023-03-14T17:21:26;12.33;67.99
67354;SHT30;54238;52.278;21.056;2023-03-14T17:23:54;12.32;67.97
67354;SHT30;54238;52.278;21.056;2023-03-14T17:26:23;12.32;67.93
67354;SHT30;54238;52.278;21.056;2023-03-14T17:28:55;12.32;67.91
67354;SHT30;54238;52.278;21.056;2023-03-14T17:31:29;12.33;67.94